McGrath, Alaska
Current Conditions -  °F | °C
As of 8:53 AM on Friday 24 Oct 2014 (Local Time) from PAMC Reporting Station
Overcast Overcast  
Wind Chill: 25°   Ceiling: 11000
Heat Index: 25°   Visibility: 10mi
Dew Point: 23°   Wind: 0mph
Humidity: 92%   Direction: NA
Pressure: 29.82"   Gusts: NA
Location:  62.96°N, 155.6°W
Report Text: PAMC 241653Z 00000KT 10SM FEW037 FEW070 OVC110 M04/M05 A2982 RMK SNE44 SLP107 P0000 T10391050 VIA AUTODIAL
Loading
Personal Weather Stations






























Interactive Weather Map
Tropical Storm Tracking
New forecast layout! Learn more

10-Day Weather Forecast

Advertisements
Track Severe Weather on mobile